Time;durP1;ratioP1;P1;durP2;ratioP2;P2;SDS_P1;SDS_P2;PMS_P1;PMS_P2;Temp;Humidity;BMP_temperature;BMP_pressure;BME280_temperature;BME280_humidity;BME280_pressure;Samples;Min_cycle;Max_cycle;Signal;HPM_P1;HPM_P2
2022/05/30 00:00:25;;;;;;;1.8;1.7;;;;;;;;;;;;;
2022/05/30 00:02:59;;;;;;;1.8;1.7;;;;;;;;;;;;;
2022/05/30 00:05:30;;;;;;;2.1;1.5;;;;;;;;;;;;;
2022/05/30 00:07:57;;;;;;;1.5;1.4;;;;;;;;;;;;;
2022/05/30 00:10:30;;;;;;;1.5;1.4;;;;;;;;;;;;;
2022/05/30 00:12:57;;;;;;;1.6;1.4;;;;;;;;;;;;;
2022/05/30 00:15:22;;;;;;;1.4;1.3;;;;;;;;;;;;;
2022/05/30 00:17:48;;;;;;;1.4;1.3;;;;;;;;;;;;;
2022/05/30 00:20:13;;;;;;;1.7;1.3;;;;;;;;;;;;;
2022/05/30 00:22:40;;;;;;;2.1;1.4;;;;;;;;;;;;;
2022/05/30 00:25:05;;;;;;;2.2;1.4;;;;;;;;;;;;;
2022/05/30 00:27:31;;;;;;;2.4;1.6;;;;;;;;;;;;;
2022/05/30 00:29:56;;;;;;;3.3;1.5;;;;;;;;;;;;;
2022/05/30 00:32:23;;;;;;;2.9;1.6;;;;;;;;;;;;;
2022/05/30 00:35:09;;;;;;;2;1.8;;;;;;;;;;;;;
2022/05/30 00:37:35;;;;;;;1.6;1.5;;;;;;;;;;;;;
2022/05/30 00:40:00;;;;;;;2.9;1.5;;;;;;;;;;;;;
2022/05/30 00:42:39;;;;;;;5;1.8;;;;;;;;;;;;;
2022/05/30 00:45:04;;;;;;;1.9;1.5;;;;;;;;;;;;;
2022/05/30 00:47:29;;;;;;;2.1;1.6;;;;;;;;;;;;;
2022/05/30 00:49:54;;;;;;;3.5;1.6;;;;;;;;;;;;;
2022/05/30 00:52:20;;;;;;;2.6;1.6;;;;;;;;;;;;;
2022/05/30 00:54:45;;;;;;;1.7;1.6;;;;;;;;;;;;;
2022/05/30 00:57:21;;;;;;;1.8;1.6;;;;;;;;;;;;;
2022/05/30 00:59:35;;;;;;;2.2;1.7;;;;;;;;;;;;;
2022/05/30 01:02:02;;;;;;;2.7;1.6;;;;;;;;;;;;;
2022/05/30 01:06:51;;;;;;;2.4;1.7;;;;;;;;;;;;;
2022/05/30 01:09:16;;;;;;;1.6;1.5;;;;;;;;;;;;;
2022/05/30 01:11:41;;;;;;;1.5;1.4;;;;;;;;;;;;;
2022/05/30 01:14:06;;;;;;;1.7;1.6;;;;;;;;;;;;;
2022/05/30 01:16:31;;;;;;;1.9;1.6;;;;;;;;;;;;;
2022/05/30 01:18:56;;;;;;;2.7;1.7;;;;;;;;;;;;;
2022/05/30 01:21:21;;;;;;;2.9;1.6;;;;;;;;;;;;;
2022/05/30 01:23:47;;;;;;;1.6;1.5;;;;;;;;;;;;;
2022/05/30 01:26:12;;;;;;;1.9;1.7;;;;;;;;;;;;;
2022/05/30 01:28:37;;;;;;;1.8;1.7;;;;;;;;;;;;;
2022/05/30 01:31:02;;;;;;;2.2;1.6;;;;;;;;;;;;;
2022/05/30 01:33:27;;;;;;;3.5;1.9;;;;;;;;;;;;;
2022/05/30 01:35:54;;;;;;;1.7;1.6;;;;;;;;;;;;;
2022/05/30 01:38:20;;;;;;;2.9;2;;;;;;;;;;;;;
2022/05/30 01:40:48;;;;;;;4.7;2.1;;;;;;;;;;;;;
2022/05/30 01:43:13;;;;;;;2.2;1.9;;;;;;;;;;;;;
2022/05/30 01:45:38;;;;;;;2.1;1.6;;;;;;;;;;;;;
2022/05/30 01:48:04;;;;;;;1.6;1.5;;;;;;;;;;;;;
2022/05/30 01:50:29;;;;;;;3.1;1.9;;;;;;;;;;;;;
2022/05/30 01:52:55;;;;;;;1.7;1.6;;;;;;;;;;;;;
2022/05/30 01:55:20;;;;;;;3;1.8;;;;;;;;;;;;;
2022/05/30 01:57:46;;;;;;;1.9;1.8;;;;;;;;;;;;;
2022/05/30 02:00:12;;;;;;;3.2;2;;;;;;;;;;;;;
2022/05/30 02:02:39;;;;;;;2.1;1.8;;;;;;;;;;;;;
2022/05/30 02:05:04;;;;;;;2.1;1.6;;;;;;;;;;;;;
2022/05/30 02:07:29;;;;;;;2.3;1.7;;;;;;;;;;;;;
2022/05/30 02:10:12;;;;;;;1.9;1.7;;;;;;;;;;;;;
2022/05/30 02:12:20;;;;;;;2.1;1.7;;;;;;;;;;;;;
2022/05/30 02:14:46;;;;;;;2;1.7;;;;;;;;;;;;;
2022/05/30 02:17:11;;;;;;;2.9;1.6;;;;;;;;;;;;;
2022/05/30 02:19:36;;;;;;;1.7;1.6;;;;;;;;;;;;;
2022/05/30 02:22:02;;;;;;;4.2;1.9;;;;;;;;;;;;;
2022/05/30 02:24:27;;;;;;;2.5;1.7;;;;;;;;;;;;;
2022/05/30 02:26:52;;;;;;;2.3;1.8;;;;;;;;;;;;;
2022/05/30 02:29:17;;;;;;;1.8;1.6;;;;;;;;;;;;;
2022/05/30 02:31:43;;;;;;;2.7;1.8;;;;;;;;;;;;;
2022/05/30 02:36:44;;;;;;;3;1.8;;;;;;;;;;;;;
2022/05/30 02:38:58;;;;;;;2.5;1.6;;;;;;;;;;;;;
2022/05/30 02:41:24;;;;;;;3.8;1.8;;;;;;;;;;;;;
2022/05/30 02:43:51;;;;;;;3.5;2.1;;;;;;;;;;;;;
2022/05/30 02:46:16;;;;;;;5.1;2.4;;;;;;;;;;;;;
2022/05/30 02:48:41;;;;;;;2.9;2.5;;;;;;;;;;;;;
2022/05/30 02:51:06;;;;;;;3.6;2.1;;;;;;;;;;;;;
2022/05/30 02:53:32;;;;;;;2.6;1.9;;;;;;;;;;;;;
2022/05/30 02:55:57;;;;;;;2;1.8;;;;;;;;;;;;;
2022/05/30 02:58:25;;;;;;;1.7;1.6;;;;;;;;;;;;;
2022/05/30 03:00:50;;;;;;;2.2;1.7;;;;;;;;;;;;;
2022/05/30 03:03:17;;;;;;;2;1.5;;;;;;;;;;;;;
2022/05/30 03:05:41;;;;;;;2.9;1.5;;;;;;;;;;;;;
2022/05/30 03:08:06;;;;;;;3.2;2;;;;;;;;;;;;;
2022/05/30 03:10:31;;;;;;;1.8;1.6;;;;;;;;;;;;;
2022/05/30 03:12:57;;;;;;;2.3;1.6;;;;;;;;;;;;;
2022/05/30 03:15:22;;;;;;;3.7;2;;;;;;;;;;;;;
2022/05/30 03:17:51;;;;;;;2.1;1.8;;;;;;;;;;;;;
2022/05/30 03:20:13;;;;;;;1.8;1.7;;;;;;;;;;;;;
2022/05/30 03:22:41;;;;;;;2.5;1.7;;;;;;;;;;;;;
2022/05/30 03:25:05;;;;;;;1.8;1.6;;;;;;;;;;;;;
2022/05/30 03:27:31;;;;;;;2.9;1.8;;;;;;;;;;;;;
2022/05/30 03:29:56;;;;;;;2.1;1.7;;;;;;;;;;;;;
2022/05/30 03:32:21;;;;;;;1.9;1.7;;;;;;;;;;;;;
2022/05/30 03:34:46;;;;;;;2.9;1.8;;;;;;;;;;;;;
2022/05/30 03:37:13;;;;;;;1.5;1.4;;;;;;;;;;;;;
2022/05/30 03:39:38;;;;;;;1.6;1.5;;;;;;;;;;;;;
2022/05/30 03:42:04;;;;;;;1.6;1.5;;;;;;;;;;;;;
2022/05/30 03:44:28;;;;;;;2.1;1.5;;;;;;;;;;;;;
2022/05/30 03:46:53;;;;;;;2.9;1.6;;;;;;;;;;;;;
2022/05/30 03:49:19;;;;;;;3.2;1.6;;;;;;;;;;;;;
2022/05/30 03:51:44;;;;;;;3.6;1.5;;;;;;;;;;;;;
2022/05/30 03:54:18;;;;;;;2.7;1.7;;;;;;;;;;;;;
2022/05/30 03:56:44;;;;;;;1.8;1.6;;;;;;;;;;;;;
2022/05/30 03:59:09;;;;;;;2.9;1.9;;;;;;;;;;;;;
2022/05/30 04:02:31;;;;;;;3;1.7;;;;;;;6.06;91.35449;930.9014;;;;
2022/05/30 04:05:01;;;;;;;1.9;1.6;;;;;;;6.16;91.2627;930.9131;;;;
2022/05/30 04:07:26;;;;;;;1.9;1.7;;;;;;;6.21;91.08203;930.8485;;;;
2022/05/30 04:09:51;;;;;;;1.5;1.4;;;;;;;6.45;90.27246;930.8036;;;;
2022/05/30 04:12:18;;;;;;;2.6;1.4;;;;;;;6.62;89.84473;930.8425;;;;
2022/05/30 04:14:43;;;;;;;2.5;1.5;;;;;;;6.88;88.87012;930.8323;;;;
2022/05/30 04:17:08;;;;;;;2.2;1.8;;;;;;;6.93;87.71289;930.7711;;;;
2022/05/30 04:19:38;;;;;;;2.1;1.6;;;;;;;6.86;88.38086;930.764;;;;
2022/05/30 04:22:09;;;;;;;3.5;2.1;;;;;;;7.16;88.52051;930.7263;;;;
2022/05/30 04:24:37;;;;;;;2.9;1.8;;;;;;;7.29;87.06348;930.7073;;;;
2022/05/30 04:39:38;;;;;;;4.1;2;;;;;;;6.95;87.0957;930.6772;;;;
2022/05/30 04:42:08;;;;;;;5.9;2.1;;;;;;;6.86;88.59668;930.6968;;;;
2022/05/30 04:44:38;;;;;;;1.6;1.5;;;;;;;6.84;89.04395;930.6514;;;;
2022/05/30 05:01:06;;;;;;;3.2;1.5;;;;;;;7.71;87.11426;930.6139;;;;
2022/05/30 05:03:25;;;;;;;2;1.3;;;;;;;7.59;85.7959;930.6563;;;;
2022/05/30 05:05:54;;;;;;;2.1;1.6;;;;;;;7.77;86.24219;930.7031;;;;
2022/05/30 05:08:19;;;;;;;1.6;1.5;;;;;;;;;;;;;
2022/05/30 05:10:44;;;;;;;2.7;1.4;;;;;;;;;;;;;
2022/05/30 05:13:09;;;;;;;2.5;1.1;;;;;;;;;;;;;
2022/05/30 05:15:34;;;;;;;1.7;1.2;;;;;;;;;;;;;
2022/05/30 05:17:59;;;;;;;2.5;1.9;;;;;;;;;;;;;
2022/05/30 05:20:25;;;;;;;2.5;2.1;;;;;;;;;;;;;
2022/05/30 05:22:51;;;;;;;4.4;3.2;;;;;;;;;;;;;
2022/05/30 05:25:16;;;;;;;3.6;2.6;;;;;;;;;;;;;
2022/05/30 05:27:41;;;;;;;2.6;1.6;;;;;;;;;;;;;
2022/05/30 05:30:10;;;;;;;2.2;1.5;;;;;;;;;;;;;
2022/05/30 05:32:33;;;;;;;3.6;1.9;;;;;;;;;;;;;
2022/05/30 05:34:59;;;;;;;2.8;1.2;;;;;;;;;;;;;
2022/05/30 05:37:24;;;;;;;1.5;1.1;;;;;;;;;;;;;
2022/05/30 05:39:50;;;;;;;1.3;1;;;;;;;;;;;;;
2022/05/30 05:42:15;;;;;;;1.2;1.1;;;;;;;;;;;;;
2022/05/30 05:44:42;;;;;;;1.4;1;;;;;;;;;;;;;
2022/05/30 05:47:07;;;;;;;1;0.8;;;;;;;;;;;;;
2022/05/30 05:49:32;;;;;;;2.2;1.2;;;;;;;;;;;;;
2022/05/30 05:51:57;;;;;;;1.2;1;;;;;;;;;;;;;
2022/05/30 05:54:25;;;;;;;1.8;1.1;;;;;;;;;;;;;
2022/05/30 05:56:49;;;;;;;1.1;1;;;;;;;;;;;;;
2022/05/30 05:59:15;;;;;;;1;1;;;;;;;;;;;;;
2022/05/30 06:01:40;;;;;;;0.8;0.8;;;;;;;;;;;;;
2022/05/30 06:04:05;;;;;;;1.3;0.9;;;;;;;;;;;;;
2022/05/30 06:06:30;;;;;;;2;1;;;;;;;;;;;;;
2022/05/30 06:08:56;;;;;;;1.7;1;;;;;;;;;;;;;
2022/05/30 06:11:23;;;;;;;1.1;1;;;;;;;;;;;;;
2022/05/30 06:13:48;;;;;;;1.4;1;;;;;;;;;;;;;
2022/05/30 06:16:15;;;;;;;1.1;1;;;;;;;;;;;;;
2022/05/30 06:18:40;;;;;;;1.6;1.1;;;;;;;;;;;;;
2022/05/30 06:21:05;;;;;;;2.2;1;;;;;;;;;;;;;
2022/05/30 06:23:30;;;;;;;2.5;1.4;;;;;;;;;;;;;
2022/05/30 06:25:56;;;;;;;1.7;1.2;;;;;;;;;;;;;
2022/05/30 06:28:21;;;;;;;1.9;0.9;;;;;;;;;;;;;
2022/05/30 06:30:47;;;;;;;1.2;0.9;;;;;;;;;;;;;
2022/05/30 06:33:12;;;;;;;1.1;0.9;;;;;;;;;;;;;
2022/05/30 06:35:39;;;;;;;1;0.9;;;;;;;;;;;;;
2022/05/30 06:38:04;;;;;;;1.1;1;;;;;;;;;;;;;
2022/05/30 06:40:30;;;;;;;1.3;0.9;;;;;;;;;;;;;
2022/05/30 06:42:55;;;;;;;1.1;1;;;;;;;;;;;;;
2022/05/30 06:45:21;;;;;;;1.2;1;;;;;;;;;;;;;
2022/05/30 06:47:46;;;;;;;0.8;0.8;;;;;;;;;;;;;
2022/05/30 06:50:13;;;;;;;1.3;0.8;;;;;;;;;;;;;
2022/05/30 06:52:38;;;;;;;1.7;0.9;;;;;;;;;;;;;
2022/05/30 06:55:03;;;;;;;0.8;0.8;;;;;;;;;;;;;
2022/05/30 06:59:53;;;;;;;1.2;1;;;;;;;;;;;;;
2022/05/30 07:02:18;;;;;;;1.9;0.9;;;;;;;;;;;;;
2022/05/30 07:04:45;;;;;;;1.7;0.8;;;;;;;;;;;;;
2022/05/30 07:07:10;;;;;;;2;1.1;;;;;;;;;;;;;
2022/05/30 07:09:36;;;;;;;1.1;1;;;;;;;;;;;;;
2022/05/30 07:12:01;;;;;;;1.6;1.1;;;;;;;;;;;;;
2022/05/30 07:14:26;;;;;;;2;0.7;;;;;;;;;;;;;
2022/05/30 07:16:52;;;;;;;0.8;0.8;;;;;;;;;;;;;
2022/05/30 07:19:17;;;;;;;1.2;0.8;;;;;;;;;;;;;
2022/05/30 07:21:43;;;;;;;1.1;0.9;;;;;;;;;;;;;
2022/05/30 07:24:08;;;;;;;1.3;0.9;;;;;;;;;;;;;
2022/05/30 07:26:33;;;;;;;1.3;0.8;;;;;;;;;;;;;
2022/05/30 07:28:59;;;;;;;1.1;0.7;;;;;;;;;;;;;
2022/05/30 07:31:25;;;;;;;1.3;0.9;;;;;;;;;;;;;
2022/05/30 07:33:50;;;;;;;0.8;0.6;;;;;;;;;;;;;
2022/05/30 07:36:15;;;;;;;2;0.7;;;;;;;;;;;;;
2022/05/30 07:38:42;;;;;;;1.4;0.8;;;;;;;;;;;;;
2022/05/30 07:41:07;;;;;;;1.2;0.8;;;;;;;;;;;;;
2022/05/30 07:43:33;;;;;;;1.3;0.7;;;;;;;;;;;;;
2022/05/30 07:45:59;;;;;;;1.2;0.7;;;;;;;;;;;;;
2022/05/30 07:48:24;;;;;;;0.7;0.7;;;;;;;;;;;;;
2022/05/30 07:50:49;;;;;;;1.5;0.9;;;;;;;;;;;;;
2022/05/30 07:53:15;;;;;;;1.8;1;;;;;;;;;;;;;
2022/05/30 07:55:40;;;;;;;1.2;0.8;;;;;;;;;;;;;
2022/05/30 07:58:06;;;;;;;1.1;0.9;;;;;;;;;;;;;
2022/05/30 08:00:31;;;;;;;1.1;0.7;;;;;;;;;;;;;
2022/05/30 08:02:58;;;;;;;1.1;1;;;;;;;;;;;;;
2022/05/30 08:05:23;;;;;;;3;1;;;;;;;;;;;;;
2022/05/30 08:07:49;;;;;;;2.7;1;;;;;;;;;;;;;
2022/05/30 08:10:14;;;;;;;1;0.9;;;;;;;;;;;;;
2022/05/30 08:12:40;;;;;;;1.8;1.4;;;;;;;;;;;;;
2022/05/30 08:15:05;;;;;;;1.3;0.8;;;;;;;;;;;;;
2022/05/30 08:17:31;;;;;;;0.8;0.8;;;;;;;;;;;;;
2022/05/30 08:19:59;;;;;;;1.1;0.8;;;;;;;;;;;;;
2022/05/30 08:22:22;;;;;;;0.8;0.7;;;;;;;;;;;;;
2022/05/30 08:24:47;;;;;;;1.2;0.9;;;;;;;;;;;;;
2022/05/30 08:27:12;;;;;;;1.1;0.8;;;;;;;;;;;;;
2022/05/30 08:29:38;;;;;;;1;0.9;;;;;;;;;;;;;
2022/05/30 08:32:03;;;;;;;0.7;0.7;;;;;;;;;;;;;
2022/05/30 08:34:28;;;;;;;1.1;1;;;;;;;;;;;;;
2022/05/30 08:36:56;;;;;;;0.8;0.7;;;;;;;;;;;;;
2022/05/30 08:41:48;;;;;;;1;0.8;;;;;;;;;;;;;
2022/05/30 08:44:10;;;;;;;0.6;0.6;;;;;;;;;;;;;
2022/05/30 08:46:36;;;;;;;1;0.9;;;;;;;;;;;;;
2022/05/30 08:49:02;;;;;;;1.8;0.7;;;;;;;;;;;;;
2022/05/30 08:51:26;;;;;;;1.2;0.8;;;;;;;;;;;;;
2022/05/30 08:53:54;;;;;;;0.7;0.7;;;;;;;;;;;;;
2022/05/30 08:56:19;;;;;;;3;0.8;;;;;;;;;;;;;
2022/05/30 08:58:44;;;;;;;1.2;0.9;;;;;;;;;;;;;
2022/05/30 09:01:09;;;;;;;0.7;0.7;;;;;;;;;;;;;
2022/05/30 09:03:34;;;;;;;1;0.9;;;;;;;;;;;;;
2022/05/30 09:05:59;;;;;;;1.6;0.8;;;;;;;;;;;;;
2022/05/30 09:08:25;;;;;;;1.7;1;;;;;;;;;;;;;
2022/05/30 09:10:51;;;;;;;0.8;0.8;;;;;;;;;;;;;
2022/05/30 09:13:16;;;;;;;0.9;0.9;;;;;;;;;;;;;
2022/05/30 09:15:44;;;;;;;1.1;0.9;;;;;;;;;;;;;
2022/05/30 09:18:09;;;;;;;1.9;1;;;;;;;;;;;;;
2022/05/30 09:20:35;;;;;;;1.4;1;;;;;;;;;;;;;
2022/05/30 09:23:00;;;;;;;1.1;0.9;;;;;;;;;;;;;
2022/05/30 09:27:52;;;;;;;0.9;0.9;;;;;;;;;;;;;
2022/05/30 09:30:18;;;;;;;1.1;0.8;;;;;;;;;;;;;
2022/05/30 09:32:45;;;;;;;1.2;0.9;;;;;;;;;;;;;
2022/05/30 09:35:11;;;;;;;1.2;0.8;;;;;;;;;;;;;
2022/05/30 09:37:37;;;;;;;3.1;0.9;;;;;;;;;;;;;
2022/05/30 09:40:01;;;;;;;1.2;1.1;;;;;;;;;;;;;
2022/05/30 09:42:27;;;;;;;2.4;0.8;;;;;;;;;;;;;
2022/05/30 09:44:54;;;;;;;2.6;0.8;;;;;;;;;;;;;
2022/05/30 09:47:19;;;;;;;2;0.8;;;;;;;;;;;;;
2022/05/30 09:49:45;;;;;;;9.6;1;;;;;;;;;;;;;
2022/05/30 09:52:10;;;;;;;3.1;0.8;;;;;;;;;;;;;
2022/05/30 09:54:35;;;;;;;0.8;0.7;;;;;;;;;;;;;
2022/05/30 09:57:00;;;;;;;1.1;1;;;;;;;;;;;;;
2022/05/30 09:59:25;;;;;;;4.7;0.9;;;;;;;;;;;;;
2022/05/30 10:01:50;;;;;;;1;0.9;;;;;;;;;;;;;
2022/05/30 10:04:15;;;;;;;1.8;0.7;;;;;;;;;;;;;
2022/05/30 10:06:41;;;;;;;0.7;0.7;;;;;;;;;;;;;
2022/05/30 10:09:06;;;;;;;1.6;0.8;;;;;;;;;;;;;
2022/05/30 10:11:32;;;;;;;2;0.9;;;;;;;;;;;;;
2022/05/30 10:13:56;;;;;;;2.3;0.9;;;;;;;;;;;;;
2022/05/30 10:16:23;;;;;;;2.4;0.8;;;;;;;;;;;;;
2022/05/30 10:18:48;;;;;;;1.4;0.9;;;;;;;;;;;;;
2022/05/30 10:21:14;;;;;;;1.4;0.8;;;;;;;;;;;;;
2022/05/30 10:28:30;;;;;;;1.9;1;;;;;;;;;;;;;
2022/05/30 10:30:56;;;;;;;1.4;0.9;;;;;;;;;;;;;
2022/05/30 10:33:21;;;;;;;0.8;0.8;;;;;;;;;;;;;
2022/05/30 10:35:46;;;;;;;1.6;1.1;;;;;;;;;;;;;
2022/05/30 10:38:11;;;;;;;1.3;0.7;;;;;;;;;;;;;
2022/05/30 10:40:36;;;;;;;1.3;0.8;;;;;;;;;;;;;
2022/05/30 10:43:01;;;;;;;1.7;1.2;;;;;;;;;;;;;
2022/05/30 10:45:26;;;;;;;1.6;1;;;;;;;;;;;;;
2022/05/30 10:47:53;;;;;;;1;0.9;;;;;;;;;;;;;
2022/05/30 10:50:18;;;;;;;1.7;1;;;;;;;;;;;;;
2022/05/30 10:52:45;;;;;;;3.3;1.2;;;;;;;;;;;;;
2022/05/30 10:55:10;;;;;;;4.3;1.1;;;;;;;;;;;;;
2022/05/30 10:57:39;;;;;;;0.9;0.9;;;;;;;;;;;;;
2022/05/30 11:00:04;;;;;;;2.6;1.1;;;;;;;;;;;;;
2022/05/30 11:02:30;;;;;;;1.5;0.9;;;;;;;;;;;;;
2022/05/30 11:04:56;;;;;;;1.7;1;;;;;;;;;;;;;
2022/05/30 11:07:24;;;;;;;1.9;1.2;;;;;;;;;;;;;
2022/05/30 11:09:49;;;;;;;1.7;1;;;;;;;;;;;;;
2022/05/30 11:12:16;;;;;;;1.4;1;;;;;;;;;;;;;
2022/05/30 11:14:42;;;;;;;1.3;0.9;;;;;;;;;;;;;
2022/05/30 11:17:07;;;;;;;1.4;1.3;;;;;;;;;;;;;
2022/05/30 11:19:32;;;;;;;1.8;1.1;;;;;;;;;;;;;
2022/05/30 11:21:59;;;;;;;1.8;1.1;;;;;;;;;;;;;
2022/05/30 11:24:24;;;;;;;1.3;1.1;;;;;;;;;;;;;
2022/05/30 11:26:49;;;;;;;1.3;1.2;;;;;;;;;;;;;
2022/05/30 11:29:17;;;;;;;1.7;1.1;;;;;;;;;;;;;
2022/05/30 11:31:42;;;;;;;1.2;1.1;;;;;;;;;;;;;
2022/05/30 11:34:08;;;;;;;2.4;1.2;;;;;;;;;;;;;
2022/05/30 11:36:33;;;;;;;1.9;1.2;;;;;;;;;;;;;
2022/05/30 11:38:58;;;;;;;17.6;9.1;;;;;;;;;;;;;
2022/05/30 11:41:24;;;;;;;2.6;1.6;;;;;;;;;;;;;
2022/05/30 11:43:48;;;;;;;1.5;1.4;;;;;;;;;;;;;
2022/05/30 11:46:14;;;;;;;3.1;1.2;;;;;;;;;;;;;
2022/05/30 11:48:38;;;;;;;1.5;1.3;;;;;;;;;;;;;
2022/05/30 11:51:04;;;;;;;2.8;1.2;;;;;;;;;;;;;
2022/05/30 11:53:29;;;;;;;3.1;1;;;;;;;;;;;;;
2022/05/30 11:55:54;;;;;;;2.4;1.2;;;;;;;;;;;;;
2022/05/30 11:58:20;;;;;;;1.5;1.4;;;;;;;;;;;;;
2022/05/30 12:00:47;;;;;;;1.9;1.6;;;;;;;;;;;;;
2022/05/30 12:03:14;;;;;;;1.8;1.2;;;;;;;;;;;;;
2022/05/30 12:05:40;;;;;;;5.5;2.8;;;;;;;;;;;;;
2022/05/30 12:08:06;;;;;;;3.5;2.4;;;;;;;;;;;;;
2022/05/30 12:10:31;;;;;;;3.4;2.2;;;;;;;;;;;;;
2022/05/30 12:12:56;;;;;;;3;2.2;;;;;;;;;;;;;
2022/05/30 12:15:22;;;;;;;6.9;4;;;;;;;;;;;;;
2022/05/30 12:23:48;;;;;;;13;8.3;;;;;;;;;;;;;
2022/05/30 12:25:06;;;;;;;2.5;1.4;;;;;;;;;;;;;
2022/05/30 12:27:32;;;;;;;1.4;1.3;;;;;;;;;;;;;
2022/05/30 12:29:57;;;;;;;2.5;1.1;;;;;;;;;;;;;
2022/05/30 12:32:22;;;;;;;2.7;1.7;;;;;;;;;;;;;
2022/05/30 12:34:47;;;;;;;1.6;1.2;;;;;;;;;;;;;
2022/05/30 12:37:12;;;;;;;1.7;1.3;;;;;;;;;;;;;
2022/05/30 12:39:37;;;;;;;2.6;1.4;;;;;;;;;;;;;
2022/05/30 12:42:08;;;;;;;2.5;1.4;;;;;;;;;;;;;
2022/05/30 12:44:27;;;;;;;3.6;1.6;;;;;;;;;;;;;
2022/05/30 12:46:52;;;;;;;1.8;1.4;;;;;;;;;;;;;
2022/05/30 12:49:19;;;;;;;1.4;1.2;;;;;;;;;;;;;
2022/05/30 12:51:44;;;;;;;1.5;1.1;;;;;;;;;;;;;
2022/05/30 12:54:09;;;;;;;2.2;1.2;;;;;;;;;;;;;
2022/05/30 12:56:34;;;;;;;2.2;1.2;;;;;;;;;;;;;
2022/05/30 12:58:59;;;;;;;1.5;1.1;;;;;;;;;;;;;
2022/05/30 13:01:25;;;;;;;1.6;1.2;;;;;;;;;;;;;
2022/05/30 13:03:50;;;;;;;1.9;1.2;;;;;;;;;;;;;
2022/05/30 13:06:15;;;;;;;2.2;1.4;;;;;;;;;;;;;
2022/05/30 13:08:40;;;;;;;2.2;1.5;;;;;;;;;;;;;
2022/05/30 13:11:05;;;;;;;2;1.6;;;;;;;;;;;;;
2022/05/30 13:13:31;;;;;;;2;1.4;;;;;;;;;;;;;
2022/05/30 13:15:58;;;;;;;2.9;1.5;;;;;;;;;;;;;
2022/05/30 13:18:23;;;;;;;3.8;1.8;;;;;;;;;;;;;
2022/05/30 13:20:48;;;;;;;1.7;1.6;;;;;;;;;;;;;
2022/05/30 13:23:15;;;;;;;1.4;1.2;;;;;;;;;;;;;
2022/05/30 13:25:40;;;;;;;1.7;1.3;;;;;;;;;;;;;
2022/05/30 13:28:05;;;;;;;2.4;1.5;;;;;;;;;;;;;
2022/05/30 13:30:31;;;;;;;2.2;1.6;;;;;;;;;;;;;
2022/05/30 13:32:56;;;;;;;1.4;1.3;;;;;;;;;;;;;
2022/05/30 13:35:21;;;;;;;2.2;1.2;;;;;;;;;;;;;
2022/05/30 13:37:47;;;;;;;1.2;1.1;;;;;;;;;;;;;
2022/05/30 13:40:12;;;;;;;1.8;1.2;;;;;;;;;;;;;
2022/05/30 13:42:37;;;;;;;3;1.3;;;;;;;;;;;;;
2022/05/30 13:45:03;;;;;;;2;1.4;;;;;;;;;;;;;
2022/05/30 13:47:28;;;;;;;1.7;1.4;;;;;;;;;;;;;
2022/05/30 13:49:53;;;;;;;2.4;1.2;;;;;;;;;;;;;
2022/05/30 13:52:21;;;;;;;2;1.3;;;;;;;;;;;;;
2022/05/30 13:54:45;;;;;;;1.8;1.2;;;;;;;;;;;;;
2022/05/30 13:57:13;;;;;;;1.2;1;;;;;;;;;;;;;
2022/05/30 13:59:38;;;;;;;1.7;1;;;;;;;;;;;;;
2022/05/30 14:02:03;;;;;;;1.3;1.2;;;;;;;;;;;;;
2022/05/30 14:04:28;;;;;;;2;1.3;;;;;;;;;;;;;
2022/05/30 14:06:53;;;;;;;2.1;1.4;;;;;;;;;;;;;
2022/05/30 14:09:19;;;;;;;1.8;1.5;;;;;;;;;;;;;
2022/05/30 14:11:46;;;;;;;2.3;1.5;;;;;;;;;;;;;
2022/05/30 14:14:10;;;;;;;1.5;1.4;;;;;;;;;;;;;
2022/05/30 14:16:36;;;;;;;2.2;1.4;;;;;;;;;;;;;
2022/05/30 14:19:01;;;;;;;2.1;1.5;;;;;;;;;;;;;
2022/05/30 14:24:22;;;;;;;1.5;1.2;;;;;;;;;;;;;
2022/05/30 14:26:47;;;;;;;2;1.2;;;;;;;;;;;;;
2022/05/30 14:29:13;;;;;;;2.2;1.8;;;;;;;;;;;;;
2022/05/30 14:31:39;;;;;;;2.3;1.3;;;;;;;;;;;;;
2022/05/30 14:34:03;;;;;;;1.4;1.3;;;;;;;;;;;;;
2022/05/30 14:36:29;;;;;;;2.9;1.4;;;;;;;;;;;;;
2022/05/30 14:38:56;;;;;;;2;1.5;;;;;;;;;;;;;
2022/05/30 14:41:19;;;;;;;1.3;1.1;;;;;;;;;;;;;
2022/05/30 14:43:46;;;;;;;1.7;1;;;;;;;;;;;;;
2022/05/30 14:46:11;;;;;;;1.4;1.1;;;;;;;;;;;;;
2022/05/30 14:48:37;;;;;;;2.1;1.2;;;;;;;;;;;;;
2022/05/30 14:51:02;;;;;;;1.6;1.3;;;;;;;;;;;;;
2022/05/30 14:53:27;;;;;;;4.1;2.1;;;;;;;;;;;;;
2022/05/30 14:55:56;;;;;;;1.7;1.3;;;;;;;;;;;;;
2022/05/30 14:58:21;;;;;;;1.2;0.8;;;;;;;;;;;;;
2022/05/30 15:00:46;;;;;;;1.9;1.1;;;;;;;;;;;;;
2022/05/30 15:05:36;;;;;;;1.9;1.1;;;;;;;;;;;;;
2022/05/30 15:08:04;;;;;;;0.6;0.6;;;;;;;;;;;;;
2022/05/30 15:10:29;;;;;;;1.4;1;;;;;;;;;;;;;
2022/05/30 15:12:55;;;;;;;2.9;1.2;;;;;;;;;;;;;
2022/05/30 15:15:20;;;;;;;2.3;1.4;;;;;;;;;;;;;
2022/05/30 15:17:48;;;;;;;1.6;1.3;;;;;;;;;;;;;
2022/05/30 15:20:12;;;;;;;1.5;1;;;;;;;;;;;;;
2022/05/30 15:22:37;;;;;;;1.1;1;;;;;;;;;;;;;
2022/05/30 15:25:04;;;;;;;1.1;1;;;;;;;;;;;;;
2022/05/30 15:27:28;;;;;;;1.3;1;;;;;;;;;;;;;
2022/05/30 15:29:53;;;;;;;2.8;1.3;;;;;;;;;;;;;
2022/05/30 15:32:18;;;;;;;1.4;1.3;;;;;;;;;;;;;
2022/05/30 15:34:44;;;;;;;2.8;1.2;;;;;;;;;;;;;
2022/05/30 15:37:08;;;;;;;1.3;1.2;;;;;;;;;;;;;
2022/05/30 15:39:35;;;;;;;1.3;1.1;;;;;;;;;;;;;
2022/05/30 15:42:00;;;;;;;3.7;1.4;;;;;;;;;;;;;
2022/05/30 15:44:26;;;;;;;1.3;1.2;;;;;;;;;;;;;
2022/05/30 15:46:51;;;;;;;2.1;1.2;;;;;;;;;;;;;
2022/05/30 15:49:18;;;;;;;1.9;1.4;;;;;;;;;;;;;
2022/05/30 15:51:43;;;;;;;1.8;1.2;;;;;;;;;;;;;
2022/05/30 15:58:59;;;;;;;2.3;1.3;;;;;;;;;;;;;
2022/05/30 16:01:25;;;;;;;1.5;1.1;;;;;;;;;;;;;
2022/05/30 16:03:51;;;;;;;2.4;1.6;;;;;;;;;;;;;
2022/05/30 16:06:17;;;;;;;2.1;1.3;;;;;;;;;;;;;
2022/05/30 16:08:42;;;;;;;2.6;1.4;;;;;;;;;;;;;
2022/05/30 16:11:08;;;;;;;2.2;1.1;;;;;;;;;;;;;
2022/05/30 16:13:33;;;;;;;1.4;1.1;;;;;;;;;;;;;
2022/05/30 16:15:59;;;;;;;1.7;1;;;;;;;;;;;;;
2022/05/30 16:18:24;;;;;;;0.9;0.8;;;;;;;;;;;;;
2022/05/30 16:20:52;;;;;;;1.1;0.8;;;;;;;;;;;;;
2022/05/30 16:23:15;;;;;;;1.1;1;;;;;;;;;;;;;
2022/05/30 16:25:41;;;;;;;1.2;1.1;;;;;;;;;;;;;
2022/05/30 16:28:08;;;;;;;1.2;1.1;;;;;;;;;;;;;
2022/05/30 16:30:34;;;;;;;1.2;1.1;;;;;;;;;;;;;
2022/05/30 16:32:59;;;;;;;1.6;1;;;;;;;;;;;;;
2022/05/30 16:35:25;;;;;;;1.7;1.1;;;;;;;;;;;;;
2022/05/30 16:37:51;;;;;;;1.3;0.9;;;;;;;;;;;;;
2022/05/30 16:40:18;;;;;;;1.5;1.1;;;;;;;;;;;;;
2022/05/30 16:42:43;;;;;;;2.3;1.1;;;;;;;;;;;;;
2022/05/30 16:45:11;;;;;;;2;1;;;;;;;;;;;;;
2022/05/30 16:47:40;;;;;;;1.9;1.1;;;;;;;;;;;;;
2022/05/30 16:50:05;;;;;;;1.6;0.9;;;;;;;;;;;;;
2022/05/30 16:52:32;;;;;;;1.3;1;;;;;;;;;;;;;
2022/05/30 16:54:58;;;;;;;1.2;1;;;;;;;;;;;;;
2022/05/30 16:57:23;;;;;;;1.5;1.2;;;;;;;;;;;;;
2022/05/30 16:59:48;;;;;;;2;1.8;;;;;;;;;;;;;
2022/05/30 17:02:15;;;;;;;5.6;2.8;;;;;;;;;;;;;
2022/05/30 17:04:40;;;;;;;2.8;2.1;;;;;;;;;;;;;
2022/05/30 17:07:06;;;;;;;3;2.6;;;;;;;;;;;;;
2022/05/30 17:09:30;;;;;;;2.4;2.2;;;;;;;;;;;;;
2022/05/30 17:11:57;;;;;;;1.9;1.7;;;;;;;;;;;;;
2022/05/30 17:14:22;;;;;;;2.8;1.7;;;;;;;;;;;;;
2022/05/30 17:16:47;;;;;;;2.6;1.4;;;;;;;;;;;;;
2022/05/30 17:19:13;;;;;;;1.7;1.2;;;;;;;;;;;;;
2022/05/30 17:21:39;;;;;;;2.7;1.6;;;;;;;;;;;;;
2022/05/30 17:24:04;;;;;;;1.4;1.3;;;;;;;;;;;;;
2022/05/30 17:29:11;;;;;;;3.5;1.5;;;;;;;;;;;;;
2022/05/30 17:31:20;;;;;;;4.2;3;;;;;;;;;;;;;
2022/05/30 17:33:45;;;;;;;4.1;2.9;;;;;;;;;;;;;
2022/05/30 17:36:11;;;;;;;3;2.5;;;;;;;;;;;;;
2022/05/30 17:38:36;;;;;;;5.3;4.6;;;;;;;;;;;;;
2022/05/30 17:41:03;;;;;;;1.2;1;;;;;;;;;;;;;
2022/05/30 17:43:28;;;;;;;1.3;1.2;;;;;;;;;;;;;
2022/05/30 17:45:54;;;;;;;1.4;1.2;;;;;;;;;;;;;
2022/05/30 17:48:19;;;;;;;2.4;1.7;;;;;;;;;;;;;
2022/05/30 17:50:44;;;;;;;3.4;1.7;;;;;;;;;;;;;
2022/05/30 17:53:10;;;;;;;6.9;4;;;;;;;;;;;;;
2022/05/30 17:55:36;;;;;;;4.7;2.9;;;;;;;;;;;;;
2022/05/30 17:58:01;;;;;;;2.1;1.5;;;;;;;;;;;;;
2022/05/30 18:00:26;;;;;;;1.4;1.2;;;;;;;;;;;;;
2022/05/30 18:02:51;;;;;;;1.2;1.1;;;;;;;;;;;;;
2022/05/30 18:05:17;;;;;;;2.1;1.4;;;;;;;;;;;;;
2022/05/30 18:07:43;;;;;;;3.1;1.9;;;;;;;;;;;;;
2022/05/30 18:10:08;;;;;;;2.4;1.7;;;;;;;;;;;;;
2022/05/30 18:12:33;;;;;;;1.9;1.6;;;;;;;;;;;;;
2022/05/30 18:14:59;;;;;;;2.1;1.9;;;;;;;;;;;;;
2022/05/30 18:17:23;;;;;;;1.8;1.5;;;;;;;;;;;;;
2022/05/30 18:19:49;;;;;;;2.9;1.9;;;;;;;;;;;;;
2022/05/30 18:22:15;;;;;;;3.2;1.5;;;;;;;;;;;;;
2022/05/30 18:24:40;;;;;;;3.7;1.6;;;;;;;;;;;;;
2022/05/30 18:27:05;;;;;;;1.7;1.4;;;;;;;;;;;;;
2022/05/30 18:29:31;;;;;;;1.8;1.6;;;;;;;;;;;;;
2022/05/30 18:31:56;;;;;;;4.1;2.7;;;;;;;;;;;;;
2022/05/30 18:34:21;;;;;;;2.7;2.4;;;;;;;;;;;;;
2022/05/30 18:36:48;;;;;;;3.5;2.4;;;;;;;;;;;;;
2022/05/30 18:39:13;;;;;;;1.9;1.7;;;;;;;;;;;;;
2022/05/30 18:41:40;;;;;;;2.3;1.8;;;;;;;;;;;;;
2022/05/30 18:44:07;;;;;;;2.6;2.2;;;;;;;;;;;;;
2022/05/30 18:46:32;;;;;;;2.9;2.6;;;;;;;;;;;;;
2022/05/30 18:48:57;;;;;;;2.8;1.9;;;;;;;;;;;;;
2022/05/30 18:51:22;;;;;;;4.9;2.1;;;;;;;;;;;;;
2022/05/30 18:53:47;;;;;;;3.2;2.9;;;;;;;;;;;;;
2022/05/30 18:56:12;;;;;;;4.8;3.7;;;;;;;;;;;;;
2022/05/30 18:58:37;;;;;;;5.2;3.5;;;;;;;;;;;;;
2022/05/30 19:01:02;;;;;;;3.5;2.7;;;;;;;;;;;;;
2022/05/30 19:03:29;;;;;;;5.1;3.2;;;;;;;;;;;;;
2022/05/30 19:05:54;;;;;;;4.8;3.8;;;;;;;;;;;;;
2022/05/30 19:08:19;;;;;;;4.5;3;;;;;;;;;;;;;
2022/05/30 19:10:45;;;;;;;2.6;2.4;;;;;;;;;;;;;
2022/05/30 19:13:11;;;;;;;2.5;2.1;;;;;;;;;;;;;
2022/05/30 19:18:00;;;;;;;4.2;3.2;;;;;;;;;;;;;
2022/05/30 19:20:26;;;;;;;3.4;2.7;;;;;;;;;;;;;
2022/05/30 19:22:50;;;;;;;3.7;3.3;;;;;;;;;;;;;
2022/05/30 19:25:17;;;;;;;4.9;2.9;;;;;;;;;;;;;
2022/05/30 19:27:42;;;;;;;5.1;3.8;;;;;;;;;;;;;
2022/05/30 19:30:07;;;;;;;4.9;3.3;;;;;;;;;;;;;
2022/05/30 19:32:34;;;;;;;6.3;4.4;;;;;;;;;;;;;
2022/05/30 19:34:59;;;;;;;5.3;4;;;;;;;;;;;;;
2022/05/30 19:37:24;;;;;;;7.7;5.4;;;;;;;;;;;;;
2022/05/30 19:39:49;;;;;;;8.7;4.7;;;;;;;;;;;;;
2022/05/30 19:42:15;;;;;;;6.4;4.6;;;;;;;;;;;;;
2022/05/30 19:44:40;;;;;;;7.6;5;;;;;;;;;;;;;
2022/05/30 19:47:05;;;;;;;6.1;4;;;;;;;;;;;;;
2022/05/30 19:49:30;;;;;;;6;4.3;;;;;;;;;;;;;
2022/05/30 19:51:55;;;;;;;6.1;4.4;;;;;;;;;;;;;
2022/05/30 19:54:21;;;;;;;6.1;4.3;;;;;;;;;;;;;
2022/05/30 19:56:46;;;;;;;5.6;3.7;;;;;;;;;;;;;
2022/05/30 19:59:12;;;;;;;6.1;4.2;;;;;;;;;;;;;
2022/05/30 20:01:37;;;;;;;6;3.9;;;;;;;;;;;;;
2022/05/30 20:04:02;;;;;;;6.9;4;;;;;;;;;;;;;
2022/05/30 20:06:27;;;;;;;5.1;3.6;;;;;;;;;;;;;
2022/05/30 20:08:55;;;;;;;5.4;3.8;;;;;;;;;;;;;
2022/05/30 20:11:20;;;;;;;6.8;3.7;;;;;;;;;;;;;
2022/05/30 20:13:46;;;;;;;6.5;4.2;;;;;;;;;;;;;
2022/05/30 20:16:12;;;;;;;7.3;4;;;;;;;;;;;;;
2022/05/30 20:18:37;;;;;;;7;4.8;;;;;;;;;;;;;
2022/05/30 20:21:02;;;;;;;6.3;4.4;;;;;;;;;;;;;
2022/05/30 20:23:27;;;;;;;7.6;4;;;;;;;;;;;;;
2022/05/30 20:25:53;;;;;;;6.8;4.3;;;;;;;;;;;;;
2022/05/30 20:28:19;;;;;;;5.5;3.7;;;;;;;;;;;;;
2022/05/30 20:30:44;;;;;;;3.2;2.6;;;;;;;;;;;;;
2022/05/30 20:33:10;;;;;;;3.1;2.8;;;;;;;;;;;;;
2022/05/30 20:35:35;;;;;;;3.8;2.8;;;;;;;;;;;;;
2022/05/30 20:38:01;;;;;;;3;2.6;;;;;;;;;;;;;
2022/05/30 20:43:07;;;;;;;3.6;2.3;;;;;;;;;;;;;
2022/05/30 20:45:16;;;;;;;2.6;2.4;;;;;;;;;;;;;
2022/05/30 20:47:46;;;;;;;4.7;2.9;;;;;;;;;;;;;
2022/05/30 20:50:11;;;;;;;5.4;2.9;;;;;;;;;;;;;
2022/05/30 20:52:37;;;;;;;5.8;3.5;;;;;;;;;;;;;
2022/05/30 20:55:02;;;;;;;4.3;3.3;;;;;;;;;;;;;
2022/05/30 20:57:28;;;;;;;5.8;4.2;;;;;;;;;;;;;
2022/05/30 20:59:53;;;;;;;6;3.6;;;;;;;;;;;;;
2022/05/30 21:02:21;;;;;;;3.6;3;;;;;;;;;;;;;
2022/05/30 21:04:47;;;;;;;5.3;3.6;;;;;;;;;;;;;
2022/05/30 21:07:12;;;;;;;4.9;3.2;;;;;;;;;;;;;
2022/05/30 21:09:37;;;;;;;4.4;3.4;;;;;;;;;;;;;
2022/05/30 21:12:04;;;;;;;5.4;3.3;;;;;;;;;;;;;
2022/05/30 21:14:29;;;;;;;4.8;3.4;;;;;;;;;;;;;
2022/05/30 21:16:54;;;;;;;3.6;2.8;;;;;;;;;;;;;
2022/05/30 21:19:19;;;;;;;4.2;2.9;;;;;;;;;;;;;
2022/05/30 21:21:44;;;;;;;4.7;3;;;;;;;;;;;;;
2022/05/30 21:24:10;;;;;;;5.7;3.8;;;;;;;;;;;;;
2022/05/30 21:26:35;;;;;;;6.5;3.4;;;;;;;;;;;;;
2022/05/30 21:29:00;;;;;;;2.9;2.4;;;;;;;;;;;;;